Aktualne dane pomiarowe

Uwaga, wersja testowa! Automatyczne pobieranie danych za pomocą narzędzi lub skryptów to umożliwiających jest zabronione.

Dane meteo z obszaru Polski uzyskane na podstawie depesz SYNOP pobieranych co godzinę z NWS. Najedź myszką na symbol przedstawiony w tabeli, aby uzyskać informacje co do jego znaczenia. Prosimy pamiętać, że to testowa wersja strony, która jeszcze nie jest ukończona. Stworzono również jest krótki FAQ dotyczący korzystania z tej podstrony Anomalie temperatury w chwili obecnej odniesione są do okresu referencyjnego 1951-2016. Okres ten będzie później zmieniony na 1981-2010. Kliknij ikonę aby pobrać plik CSV. Kliknij ikonę aby wygenerować mapę synoptyczną dla danego terminu.

Wybierz Datę:    

        

Radom (12485)

Dane terminowe dla wybranej stacji. Kliknij datę, aby otrzymać dane z tego terminu dla wszystkich stacji.

TemperaturaZachmurzenieWiatrCiśnienieOpadyPogoda
 Data t td wb tx tn tg rh  Nt Nl Cl Cm Ch ws wd g1 g2 wx mslp ppp ch 24h 12h t ww ww w1 w2  
2019-05-20 23:00:00 14.5 14.0 14.1--- 976.0wxwxwxwx3wx---1005.8 984.1 0.1---wx---
2019-05-20 22:00:00 13.5 13.0 13.1--- 976.0wxwxwxwx3wx---1006.2 984.4 0.3---wx---
2019-05-20 21:00:00 13.5 13.0 13.1--- 976.0wx-wx3wx---1005.9 984.1 -0.1---wx---
2019-05-20 20:00:00 14.7 14.1 14.2--- 968.0wxwxwxwx3wx---1005.8 984.1 0.8---wx---
2019-05-20 19:00:00 16.0 15.4 15.5--- 968.0wxwxwxwx3wx---1005.7 984.1 0.3---wx---
2019-05-20 18:00:00 16.6 15.6 15.9--- 9410.0wxwxwxwxwx3wx---1005.8 984.2 0.3---------
2019-05-20 17:00:00 17.2 15.6 16.1--- 908.0wxwxwxwx4wx---1004.7 983.2 -0.9---wx-w1--
2019-05-20 16:00:00 19.8 13.3 15.6--- 6610.0wxwxwxwx4wx---1005.1 983.8 -0.7---wx-w1w2--
2019-05-20 15:00:00 21.1 13.3 16.1--- 6110.0wxwxwxwx3wx---1005.1 983.9 -1.0---wx---
2019-05-20 14:00:00 21.9 13.0 16.3--- 5710.0wxwxwxwx5wx---1005.4 984.2 -0.4---------
2019-05-20 13:00:00 22.7 12.9 16.6--- 5410.0wxwxwxwx7wx---1005.6 984.5 0.0---------
2019-05-20 12:00:00 22.5 11.6 15.9--- 5010.0wxwxwxwxwx7wx---1006.2 985.0 1.1---------
2019-05-20 11:00:00 22.4 12.1 16.1--- 5210.0wxwxwxwx6wx---1005.7 984.6 1.4---------
2019-05-20 10:00:00 21.7 15.8 17.8--- 6910.0wxwxwxwx5wx---1005.7 984.5 1.4---------
2019-05-20 09:00:00 22.2 17.4 18.9--- 7410.0wxwxwxwx5wx---1005.0 983.9 0.5---------
2019-05-20 08:00:00 21.2 17.0 18.3--- 7710.0wxwxwxwx5wx---1004.5 983.3 0.0---------
2019-05-20 07:00:00 19.2 16.6 17.4--- 8510.0wxwxwx5wx---1004.5 983.1 -0.5---------
2019-05-20 06:00:00 17.9 16.1 16.6--- 8910.0wxwxwx4wx---1004.9 983.4 -0.3---------
2019-05-20 05:00:00 16.8 15.3 15.7--- 9110.0wxwxwx4wx---1004.8 983.3 -0.8---------
2019-05-20 04:00:00 15.7 14.7 15.0--- 9410.0wx-wxwx3wx---1005.2 983.6 -0.9---------
2019-05-20 03:00:00 15.2 14.6 14.7--- 9610.0wx-wx3wx---1005.4 983.7 -1.3---------
2019-05-20 02:00:00 15.1 14.5 14.6--- 9610.0wx-wx4wx---1006.2 983.7 -0.7---------
2019-05-20 01:00:00 15.9 15.1 15.3--- 9510.0wx-wx3wx---1006.1 984.5 -0.8---------
2019-05-20 00:00:00 16.7 15.6 15.9--- 9310.0wx-wx4wx---1006.6 985.0 -0.8---------
2019-05-19 23:00:00 16.9 15.9 16.2--- 9410.0wx-wx3wx---1006.8 985.2 -0.6---------
2019-05-19 22:00:00 17.6 15.9 16.4--- 9010.0wx-wxwx3wx---1006.8 985.3 -0.6---------
2019-05-19 21:00:00 17.7 14.2 15.3--- 8010.0wxwxwxwx4wx---1007.3 985.8 -0.2---------
2019-05-19 20:00:00 17.2 13.9 15.0--- 8110.0wxwxwxwx4wx---1007.4 985.8 -0.7---------
2019-05-19 19:00:00 18.1 15.5 16.3--- 8510.0wxwxwxwx2wx---1007.4 985.9 -0.3---------
2019-05-19 18:00:00 17.3 15.3 15.9--- 8810.0wxwxwxwx3wx---1007.6 986.0 -0.8---------
2019-05-19 17:00:00 18.3 15.9 16.6--- 8610.0wxwxwxwxwx2wx---1008.0 986.5 0.3---------
2019-05-19 16:00:00 20.3 15.9 17.3--- 7610.0wxwxwxwxwx5wx---1007.6 986.3 0.1---------
2019-05-19 15:00:00 21.0 15.3 17.2--- 7010.0wxwxwxwx4wx---1008.1 986.8 0.1---------
2019-05-19 14:00:00 22.1 15.0 17.5--- 6410.0wxwxwxwx4wx---1007.4 986.2 -0.7---------
2019-05-19 13:00:00 21.5 14.4 16.9--- 6410.0wxwxwxwx5wx---1007.3 986.1 -1.0---------
2019-05-19 12:00:00 20.7 14.4 16.6--- 6710.0wxwxwxwx5wx---1008.0 986.7 -0.4---------
2019-05-19 11:00:00 20.5 15.6 17.2--- 7410.0wxwxwxwx4wx---1008.2 986.9 -0.2---------
2019-05-19 10:00:00 19.6 15.9 17.1--- 7910.0wxwxwx3wx---1008.5 987.1 0.0---------
2019-05-19 09:00:00 18.2 14.7 15.8--- 8010.0wxwxwxwx4wx---1008.6 987.1 0.2---------
2019-05-19 08:00:00 17.2 14.8 15.5--- 8610.0wxwxwxwx5wx---1008.7 987.1 0.0---------
2019-05-19 07:00:00 16.9 15.0 15.6--- 8910.0wxwxwxwx3wx---1008.7 987.1 -0.2---------
2019-05-19 06:00:00 16.3 14.7 15.2--- 9010.0wxwxwxwx3wx---1008.6 986.9 -0.5---------
2019-05-19 05:00:00 15.5 14.7 14.9--- 958.0wxwxwx3wx---1008.8 987.1 -0.3---wx---
2019-05-19 04:00:00 15.1 14.5 14.6--- 968.0wxwxwx1wx---1009.1 987.3 -0.6---wx-w2--
2019-05-19 03:00:00 15.0 14.5 14.6--- 978.0wxwxwx1wx---1009.2 987.4 -0.4---wx-w1w2--
2019-05-19 02:00:00 15.1 14.4 14.6--- 968.0wxwxwx2wx---1009.2 987.4 -0.2---wx-w1w2--
2019-05-19 01:00:00 15.4 14.4 14.7--- 948.0wxwxwx2wx---1009.6 987.9 0.1---wx-w1w2--
2019-05-19 00:00:00 15.4 14.3 14.6--- 939.0wxwxwx3wx---1009.4 987.7 0.1---wx-w1--
1.8 ms

 

Print Friendly, PDF & Email